Time;durP1;ratioP1;P1;durP2;ratioP2;P2;SDS_P1;SDS_P2;PMS_P1;PMS_P2;Temp;Humidity;BMP_temperature;BMP_pressure;BME280_temperature;BME280_humidity;BME280_pressure;Samples;Min_cycle;Max_cycle;Signal;HPM_P1;HPM_P2
2022/06/19 00:02:27;;;;;;;7.70;2.00;;;;;;;;;;5297948;27;20066;-81
2022/06/19 00:04:58;;;;;;;9.48;2.20;;;;;;;;;;5300748;27;20031;-81
2022/06/19 00:07:29;;;;;;;7.23;2.40;;;;;;;;;;5314584;27;20032;-81
2022/06/19 00:10:01;;;;;;;7.38;2.17;;;;;;;;;;5311010;27;20350;-81
2022/06/19 00:12:33;;;;;;;9.38;2.30;;;;;;;;;;5310383;27;20115;-81
2022/06/19 00:15:04;;;;;;;7.90;2.22;;;;;;;;;;5326550;27;20048;-81
2022/06/19 00:17:35;;;;;;;6.45;2.50;;;;;;;;;;5290657;27;20034;-81
2022/06/19 00:20:07;;;;;;;12.25;2.47;;;;;;;;;;5313656;27;20415;-80
2022/06/19 00:22:38;;;;;;;12.30;2.60;;;;;;;;;;5313739;27;20029;-81
2022/06/19 00:25:10;;;;;;;11.98;2.45;;;;;;;;;;5293130;27;20028;-81
2022/06/19 00:27:41;;;;;;;6.70;2.13;;;;;;;;;;5317306;27;20029;-81
2022/06/19 00:30:12;;;;;;;12.10;2.60;;;;;;;;;;5297594;27;20198;-81
2022/06/19 00:32:44;;;;;;;11.20;2.22;;;;;;;;;;5313434;27;20059;-81
2022/06/19 00:35:15;;;;;;;10.67;2.73;;;;;;;;;;5313468;27;20200;-81
2022/06/19 00:37:46;;;;;;;15.77;2.67;;;;;;;;;;5311458;27;20350;-81
2022/06/19 00:40:18;;;;;;;12.15;2.55;;;;;;;;;;5310097;27;20063;-81
2022/06/19 00:42:49;;;;;;;7.53;2.08;;;;;;;;;;5317269;27;20032;-81
2022/06/19 00:45:29;;;;;;;12.52;2.60;;;;;;;;;;5317686;27;20387;-80
2022/06/19 00:48:02;;;;;;;8.77;2.40;;;;;;;;;;5301251;27;20147;-81
2022/06/19 00:50:34;;;;;;;9.98;2.47;;;;;;;;;;5294509;27;20027;-80
2022/06/19 00:53:09;;;;;;;10.18;2.80;;;;;;;;;;5325273;27;20387;-80
2022/06/19 00:55:42;;;;;;;9.73;2.47;;;;;;;;;;5321091;27;20079;-80
2022/06/19 00:58:16;;;;;;;11.85;2.83;;;;;;;;;;5299311;27;20047;-80
2022/06/19 01:00:50;;;;;;;12.40;3.00;;;;;;;;;;5307419;27;20400;-81
2022/06/19 01:03:23;;;;;;;8.40;2.13;;;;;;;;;;5311643;27;20029;-80
2022/06/19 01:05:54;;;;;;;16.88;2.92;;;;;;;;;;5316798;27;20111;-80
2022/06/19 01:08:26;;;;;;;16.42;2.95;;;;;;;;;;5316700;27;20135;-81
2022/06/19 01:10:57;;;;;;;9.47;2.13;;;;;;;;;;5315800;27;20028;-81
2022/06/19 01:13:29;;;;;;;14.23;3.03;;;;;;;;;;5311800;27;20024;-81
2022/06/19 01:16:01;;;;;;;17.33;3.17;;;;;;;;;;5310802;27;20298;-81
2022/06/19 01:18:33;;;;;;;10.52;2.80;;;;;;;;;;5296390;27;20393;-81
2022/06/19 01:21:09;;;;;;;12.77;3.13;;;;;;;;;;5310459;27;20462;-81
2022/06/19 01:23:40;;;;;;;;;;;;;;;;;;5318050;27;20361;-81
2022/06/19 01:26:12;;;;;;;16.48;2.80;;;;;;;;;;5289382;27;20009;-81
2022/06/19 01:28:46;;;;;;;10.40;2.42;;;;;;;;;;5312131;27;20025;-81
2022/06/19 01:31:44;;;;;;;11.32;2.55;;;;;;;;;;5310092;27;20428;-81
2022/06/19 01:34:28;;;;;;;8.60;2.30;;;;;;;;;;5305674;27;20044;-82
2022/06/19 01:37:08;;;;;;;14.48;2.65;;;;;;;;;;5311121;27;20487;-82
2022/06/19 01:39:57;;;;;;;10.93;2.60;;;;;;;;;;5315420;27;20040;-81
2022/06/19 01:45:34;;;;;;;10.38;2.10;;;;;;;;;;5287101;27;20485;-81
2022/06/19 01:51:52;;;;;;;;;;;;;;;;;;;;;
2022/06/19 02:01:07;;;;;;;11.73;2.80;;;;;;;;;;5248629;28;20045;-81
2022/06/19 02:03:44;;;;;;;14.27;2.88;;;;;;;;;;5288434;27;20028;-82
2022/06/19 02:06:19;;;;;;;15.23;3.17;;;;;;;;;;5310855;27;20028;-81
2022/06/19 02:08:51;;;;;;;11.20;2.20;;;;;;;;;;5289200;27;20024;-81
2022/06/19 02:11:22;;;;;;;11.65;2.63;;;;;;;;;;5309905;27;20031;-82
2022/06/19 02:13:57;;;;;;;15.45;2.85;;;;;;;;;;5309478;27;20032;-81
2022/06/19 02:16:29;;;;;;;11.25;2.33;;;;;;;;;;5330373;27;20035;-81
2022/06/19 02:19:00;;;;;;;13.35;2.58;;;;;;;;;;5324914;27;20365;-81
2022/06/19 02:21:36;;;;;;;14.80;2.87;;;;;;;;;;5315967;27;20046;-81
2022/06/19 02:24:07;;;;;;;;;;;;;;;;;;5294952;27;20330;-82
2022/06/19 02:26:39;;;;;;;10.73;2.20;;;;;;;;;;5299299;27;19999;-81
2022/06/19 02:29:12;;;;;;;10.65;2.45;;;;;;;;;;5289653;27;20029;-81
2022/06/19 02:31:45;;;;;;;14.52;2.55;;;;;;;;;;5313520;27;20036;-81
2022/06/19 02:34:37;;;;;;;10.70;2.45;;;;;;;;;;5311542;27;20080;-81
2022/06/19 02:37:34;;;;;;;11.90;2.35;;;;;;;;;;5293019;27;20387;-81
2022/06/19 02:40:09;;;;;;;13.60;2.45;;;;;;;;;;5306564;27;20044;-81
2022/06/19 02:42:41;;;;;;;10.38;2.47;;;;;;;;;;5312007;27;20032;-81
2022/06/19 02:45:17;;;;;;;9.27;2.15;;;;;;;;;;5299735;27;20114;-81
2022/06/19 02:47:50;;;;;;;17.35;3.17;;;;;;;;;;5309271;27;20555;-81
2022/06/19 02:50:23;;;;;;;9.02;2.22;;;;;;;;;;5288189;27;20023;-81
2022/06/19 02:52:54;;;;;;;9.63;2.45;;;;;;;;;;5300322;27;20605;-82
2022/06/19 02:55:26;;;;;;;9.02;2.15;;;;;;;;;;5313246;27;20063;-81
2022/06/19 02:57:57;;;;;;;9.13;1.95;;;;;;;;;;5312644;27;20051;-81
2022/06/19 03:00:28;;;;;;;10.33;2.17;;;;;;;;;;5312214;27;20044;-81
2022/06/19 03:03:02;;;;;;;7.40;2.13;;;;;;;;;;5313225;27;20289;-82
2022/06/19 03:05:34;;;;;;;9.38;1.88;;;;;;;;;;5312969;27;20031;-81
2022/06/19 03:08:05;;;;;;;7.57;1.85;;;;;;;;;;5312222;27;20023;-81
2022/06/19 03:10:36;;;;;;;10.07;2.20;;;;;;;;;;5311569;27;20107;-81
2022/06/19 03:13:07;;;;;;;9.00;1.83;;;;;;;;;;5294048;27;20282;-81
2022/06/19 03:15:39;;;;;;;6.53;1.52;;;;;;;;;;5290415;27;20047;-81
2022/06/19 03:18:10;;;;;;;4.45;1.85;;;;;;;;;;5308565;27;20501;-81
2022/06/19 03:20:41;;;;;;;11.38;1.55;;;;;;;;;;5311817;27;20063;-81
2022/06/19 03:23:13;;;;;;;8.17;2.20;;;;;;;;;;5297983;27;20016;-81
2022/06/19 03:25:44;;;;;;;9.13;1.85;;;;;;;;;;5328627;27;20270;-80
2022/06/19 03:28:15;;;;;;;5.47;1.57;;;;;;;;;;5300231;27;20016;-81
2022/06/19 03:30:49;;;;;;;7.73;1.20;;;;;;;;;;5320185;27;20281;-81
2022/06/19 03:33:21;;;;;;;8.32;1.45;;;;;;;;;;5310279;27;20760;-81
2022/06/19 03:35:52;;;;;;;9.95;1.48;;;;;;;;;;5310298;27;20048;-81
2022/06/19 03:38:24;;;;;;;7.68;1.20;;;;;;;;;;5326240;27;20500;-81
2022/06/19 03:40:55;;;;;;;7.65;1.90;;;;;;;;;;5312660;27;20366;-81
2022/06/19 03:43:26;;;;;;;7.88;1.45;;;;;;;;;;5311582;27;20025;-81
2022/06/19 03:45:58;;;;;;;7.07;1.20;;;;;;;;;;5297689;27;20112;-80
2022/06/19 03:48:29;;;;;;;5.85;1.33;;;;;;;;;;5296135;27;20448;-81
2022/06/19 03:51:00;;;;;;;8.77;1.17;;;;;;;;;;5312968;27;20112;-81
2022/06/19 03:53:32;;;;;;;7.50;1.40;;;;;;;;;;5300694;27;20111;-81
2022/06/19 03:56:04;;;;;;;5.80;1.58;;;;;;;;;;5296300;27;20329;-81
2022/06/19 03:58:47;;;;;;;6.55;1.42;;;;;;;;;;5314723;27;20047;-81
2022/06/19 04:01:20;;;;;;;5.40;1.10;;;;;;;;;;5294652;27;20145;-81
2022/06/19 04:03:52;;;;;;;6.47;1.20;;;;;;;;;;5318341;27;20069;-81
2022/06/19 04:06:25;;;;;;;4.60;1.60;;;;;;;;;;5313318;27;20457;-81
2022/06/19 04:08:57;;;;;;;10.27;1.50;;;;;;;;;;5312541;27;20429;-81
2022/06/19 04:11:29;;;;;;;7.35;1.48;;;;;;;;;;5299637;27;20186;-81
2022/06/19 04:14:00;;;;;;;5.32;1.10;;;;;;;;;;5310574;27;20614;-81
2022/06/19 04:16:32;;;;;;;4.63;1.00;;;;;;;;;;5299333;27;20037;-81
2022/06/19 04:19:05;;;;;;;5.78;1.17;;;;;;;;;;5314258;27;20025;-81
2022/06/19 04:21:41;;;;;;;6.47;1.52;;;;;;;;;;5317976;27;20093;-82
2022/06/19 04:24:13;;;;;;;5.72;1.15;;;;;;;;;;5312625;27;20028;-82
2022/06/19 04:26:45;;;;;;;5.47;1.40;;;;;;;;;;5294337;27;20033;-82
2022/06/19 04:29:22;;;;;;;7.85;1.60;;;;;;;;;;5301780;27;20032;-82
2022/06/19 04:31:55;;;;;;;7.55;1.35;;;;;;;;;;5295116;27;20064;-82
2022/06/19 04:34:27;;;;;;;10.10;1.75;;;;;;;;;;5294766;27;20048;-82
2022/06/19 04:36:58;;;;;;;6.55;1.75;;;;;;;;;;5292004;27;20082;-82
2022/06/19 04:39:33;;;;;;;6.03;1.58;;;;;;;;;;5329742;27;20028;-82
2022/06/19 04:42:07;;;;;;;4.75;1.60;;;;;;;;;;5293019;27;20098;-82
2022/06/19 04:44:38;;;;;;;4.82;1.33;;;;;;;;;;5293797;27;20494;-81
2022/06/19 04:47:09;;;;;;;6.97;1.43;;;;;;;;;;5296206;27;20119;-81
2022/06/19 04:49:40;;;;;;;9.27;1.30;;;;;;;;;;5297876;27;20064;-82
2022/06/19 04:52:12;;;;;;;9.70;1.60;;;;;;;;;;5292446;27;20428;-81
2022/06/19 04:54:45;;;;;;;6.32;1.45;;;;;;;;;;5288727;27;20289;-81
2022/06/19 04:57:16;;;;;;;9.82;1.70;;;;;;;;;;5317391;27;20028;-81
2022/06/19 04:59:48;;;;;;;6.30;1.70;;;;;;;;;;5292966;27;20038;-82
2022/06/19 05:02:19;;;;;;;8.82;1.58;;;;;;;;;;5310502;27;20313;-81
2022/06/19 05:04:50;;;;;;;15.33;2.67;;;;;;;;;;5296674;27;20038;-81
2022/06/19 05:07:21;;;;;;;8.73;1.90;;;;;;;;;;5316812;27;20805;-81
2022/06/19 05:09:52;;;;;;;10.80;2.23;;;;;;;;;;5311473;27;20039;-82
2022/06/19 05:12:24;;;;;;;4.63;1.30;;;;;;;;;;5311911;27;20024;-81
2022/06/19 05:14:55;;;;;;;9.60;1.55;;;;;;;;;;5310871;27;20263;-81
2022/06/19 05:17:26;;;;;;;10.07;1.95;;;;;;;;;;5297747;27;20024;-81
2022/06/19 05:19:58;;;;;;;8.13;1.67;;;;;;;;;;5293363;27;20389;-81
2022/06/19 05:22:30;;;;;;;7.80;1.30;;;;;;;;;;5291853;27;20305;-81
2022/06/19 05:25:04;;;;;;;7.35;1.90;;;;;;;;;;5318475;27;20067;-81
2022/06/19 05:27:36;;;;;;;6.97;1.67;;;;;;;;;;5320849;27;20032;-80
2022/06/19 05:30:10;;;;;;;7.35;1.40;;;;;;;;;;5315748;27;20031;-81
2022/06/19 05:32:41;;;;;;;9.82;1.83;;;;;;;;;;5314250;27;20115;-81
2022/06/19 05:35:12;;;;;;;6.45;1.45;;;;;;;;;;5297978;27;20093;-81
2022/06/19 05:37:46;;;;;;;9.50;1.77;;;;;;;;;;5321896;27;20025;-81
2022/06/19 05:40:18;;;;;;;5.07;1.60;;;;;;;;;;5311990;27;20040;-81
2022/06/19 05:42:49;;;;;;;6.85;1.52;;;;;;;;;;5323674;27;20043;-81
2022/06/19 05:45:20;;;;;;;4.47;1.30;;;;;;;;;;5312896;27;20071;-81
2022/06/19 05:47:51;;;;;;;9.63;1.47;;;;;;;;;;5318461;27;20315;-81
2022/06/19 05:50:23;;;;;;;9.37;1.83;;;;;;;;;;5293819;27;20278;-81
2022/06/19 05:52:54;;;;;;;5.32;1.40;;;;;;;;;;5305139;27;20265;-81
2022/06/19 05:55:25;;;;;;;5.07;1.63;;;;;;;;;;5317995;27;20070;-81
2022/06/19 05:57:56;;;;;;;7.10;1.40;;;;;;;;;;5298933;27;20255;-82
2022/06/19 06:00:28;;;;;;;6.47;1.70;;;;;;;;;;5323723;27;20564;-81
2022/06/19 06:02:59;;;;;;;5.95;1.60;;;;;;;;;;5293524;27;20283;-81
2022/06/19 06:05:30;;;;;;;6.03;1.33;;;;;;;;;;5325649;27;20033;-82
2022/06/19 06:08:01;;;;;;;7.23;1.77;;;;;;;;;;5309462;27;20413;-81
2022/06/19 06:10:32;;;;;;;7.55;1.75;;;;;;;;;;5297093;27;20275;-80
2022/06/19 06:13:04;;;;;;;6.27;1.37;;;;;;;;;;5309095;27;20032;-80
2022/06/19 06:15:35;;;;;;;7.88;2.05;;;;;;;;;;5323423;27;20090;-80
2022/06/19 06:18:06;;;;;;;7.77;1.70;;;;;;;;;;5297990;27;20029;-80
2022/06/19 06:20:37;;;;;;;7.03;2.30;;;;;;;;;;5291540;27;20519;-80
2022/06/19 06:23:09;;;;;;;9.33;1.43;;;;;;;;;;5300352;27;20505;-78
2022/06/19 06:25:42;;;;;;;5.50;2.13;;;;;;;;;;5320657;27;20374;-79
2022/06/19 06:28:15;;;;;;;6.07;1.20;;;;;;;;;;5300354;27;20020;-79
2022/06/19 06:30:46;;;;;;;6.05;1.88;;;;;;;;;;5316634;27;20458;-79
2022/06/19 06:33:17;;;;;;;10.10;1.87;;;;;;;;;;5328710;27;20166;-80
2022/06/19 06:35:48;;;;;;;8.20;1.77;;;;;;;;;;5313603;27;20328;-80
2022/06/19 06:38:20;;;;;;;13.95;1.98;;;;;;;;;;5313763;27;20278;-81
2022/06/19 06:40:51;;;;;;;8.30;1.75;;;;;;;;;;5322049;27;20060;-81
2022/06/19 06:43:23;;;;;;;8.77;1.88;;;;;;;;;;5349148;27;20062;-81
2022/06/19 06:46:02;;;;;;;6.75;1.48;;;;;;;;;;5329888;27;20034;-81
2022/06/19 06:48:33;;;;;;;11.30;2.00;;;;;;;;;;5328861;27;20126;-82
2022/06/19 06:51:12;;;;;;;8.70;2.20;;;;;;;;;;5300855;27;20032;-82
2022/06/19 06:53:46;;;;;;;7.35;1.77;;;;;;;;;;5303905;27;20092;-82
2022/06/19 06:56:17;;;;;;;9.63;2.08;;;;;;;;;;5302221;27;20039;-82
2022/06/19 06:58:49;;;;;;;10.48;2.00;;;;;;;;;;5299933;27;20024;-81
2022/06/19 07:01:21;;;;;;;6.43;1.20;;;;;;;;;;5332168;27;20028;-81
2022/06/19 07:03:55;;;;;;;8.85;2.35;;;;;;;;;;5321816;27;20124;-81
2022/06/19 07:06:28;;;;;;;9.55;1.60;;;;;;;;;;5316170;27;20024;-82
2022/06/19 07:08:59;;;;;;;6.10;1.80;;;;;;;;;;5318219;27;20046;-81
2022/06/19 07:11:36;;;;;;;9.55;2.05;;;;;;;;;;5295227;27;20035;-81
2022/06/19 07:14:07;;;;;;;5.28;1.58;;;;;;;;;;5310364;27;20135;-81
2022/06/19 07:16:40;;;;;;;7.43;1.45;;;;;;;;;;5309628;27;20096;-82
2022/06/19 07:19:11;;;;;;;9.95;1.27;;;;;;;;;;5314407;27;20035;-82
2022/06/19 07:21:42;;;;;;;7.80;1.77;;;;;;;;;;5316298;27;20024;-82
2022/06/19 07:24:16;;;;;;;8.37;2.17;;;;;;;;;;5314356;27;20290;-82
2022/06/19 07:26:47;;;;;;;12.60;2.40;;;;;;;;;;5300558;27;20094;-81
2022/06/19 07:29:18;;;;;;;9.57;1.97;;;;;;;;;;5298869;27;20032;-83
2022/06/19 07:31:49;;;;;;;12.07;2.58;;;;;;;;;;5318555;27;20161;-83
2022/06/19 07:34:21;;;;;;;11.83;2.13;;;;;;;;;;5327872;27;20055;-83
2022/06/19 07:36:52;;;;;;;11.50;2.30;;;;;;;;;;5303802;27;20283;-83
2022/06/19 07:39:23;;;;;;;11.90;2.00;;;;;;;;;;5314692;27;20028;-82
2022/06/19 07:41:55;;;;;;;11.15;2.15;;;;;;;;;;5320403;27;20032;-82
2022/06/19 07:44:26;;;;;;;9.17;2.27;;;;;;;;;;5300788;27;20068;-82
2022/06/19 07:50:16;;;;;;;14.93;2.40;;;;;;;;;;5316022;27;20043;-82
2022/06/19 07:52:50;;;;;;;13.82;2.83;;;;;;;;;;5312379;27;20397;-82
2022/06/19 07:55:23;;;;;;;13.15;2.30;;;;;;;;;;5313311;27;20066;-82
2022/06/19 08:01:17;;;;;;;7.95;2.50;;;;;;;;;;5294076;27;20042;-83
2022/06/19 08:04:15;;;;;;;10.57;2.60;;;;;;;;;;5301652;27;20032;-82
2022/06/19 08:07:09;;;;;;;;;;;;;;;;;;;;;
2022/06/19 08:13:19;;;;;;;13.85;2.17;;;;;;;;;;5323342;27;20036;-82
2022/06/19 08:16:12;;;;;;;14.02;2.45;;;;;;;;;;5322724;27;20497;-82
2022/06/19 08:19:20;;;;;;;11.43;2.90;;;;;;;;;;5313704;27;20032;-83
2022/06/19 08:29:27;;;;;;;11.02;2.47;;;;;;;;;;5162820;28;20475;-84
2022/06/19 08:38:14;;;;;;;;;;;;;;;;;;5145732;28;20032;-84
2022/06/19 08:41:01;;;;;;;13.15;2.67;;;;;;;;;;5156955;28;19934;-84
2022/06/19 08:44:02;;;;;;;14.75;2.95;;;;;;;;;;5175268;28;20494;-84
2022/06/19 08:46:37;;;;;;;10.95;2.55;;;;;;;;;;5286408;27;20474;-84
2022/06/19 08:49:38;;;;;;;12.65;3.75;;;;;;;;;;5303012;27;20036;-84
2022/06/19 08:52:45;;;;;;;;;;;;;;;;;;;;;
2022/06/19 08:55:43;;;;;;;10.27;2.78;;;;;;;;;;5324677;27;41057;-83
2022/06/19 08:58:36;;;;;;;8.63;2.53;;;;;;;;;;5311120;27;20028;-83
2022/06/19 09:01:13;;;;;;;13.48;2.63;;;;;;;;;;5316824;27;20088;-81
2022/06/19 09:06:50;;;;;;;10.25;2.60;;;;;;;;;;5310175;28;20469;-83
2022/06/19 09:09:33;;;;;;;7.63;2.53;;;;;;;;;;5326422;28;20073;-83
2022/06/19 09:12:14;;;;;;;10.77;2.50;;;;;;;;;;5306927;28;20062;-82
2022/06/19 09:15:08;;;;;;;8.52;2.80;;;;;;;;;;5326301;27;20053;-82
2022/06/19 09:17:54;;;;;;;8.65;2.35;;;;;;;;;;5260737;27;20145;-82
2022/06/19 09:20:31;;;;;;;7.20;2.00;;;;;;;;;;5318232;27;20030;-82
2022/06/19 09:23:38;;;;;;;8.65;2.00;;;;;;;;;;5292326;27;20021;-82
2022/06/19 09:26:09;;;;;;;7.00;2.10;;;;;;;;;;5256415;28;20069;-82
2022/06/19 09:28:40;;;;;;;7.33;2.53;;;;;;;;;;5306068;27;20064;-82
2022/06/19 09:31:11;;;;;;;7.23;1.80;;;;;;;;;;5320782;27;21028;-82
2022/06/19 09:34:06;;;;;;;6.85;1.75;;;;;;;;;;5310937;27;20055;-81
2022/06/19 09:36:57;;;;;;;9.02;2.00;;;;;;;;;;5297074;27;20612;-82
2022/06/19 09:39:51;;;;;;;7.00;1.70;;;;;;;;;;5297702;27;20424;-82
2022/06/19 09:42:27;;;;;;;7.80;2.45;;;;;;;;;;5323362;27;20107;-82
2022/06/19 09:45:09;;;;;;;8.47;2.10;;;;;;;;;;5317927;27;20035;-81
2022/06/19 09:47:44;;;;;;;9.77;3.17;;;;;;;;;;5312883;27;20028;-80
2022/06/19 09:50:21;;;;;;;7.55;2.35;;;;;;;;;;5336419;27;20025;-81
2022/06/19 09:52:52;;;;;;;8.82;2.75;;;;;;;;;;5337524;27;20032;-81
2022/06/19 09:55:44;;;;;;;12.40;2.60;;;;;;;;;;5329108;27;20661;-80
2022/06/19 09:58:17;;;;;;;10.13;2.55;;;;;;;;;;5345743;27;20062;-81
2022/06/19 10:00:49;;;;;;;9.00;2.30;;;;;;;;;;5308969;27;20060;-82
2022/06/19 10:03:29;;;;;;;8.60;2.50;;;;;;;;;;5318522;27;20353;-81
2022/06/19 10:06:07;;;;;;;6.07;2.10;;;;;;;;;;5294355;27;20455;-82
2022/06/19 10:08:49;;;;;;;7.40;2.28;;;;;;;;;;5312650;27;20029;-81
2022/06/19 10:11:22;;;;;;;7.72;2.00;;;;;;;;;;5312959;27;20051;-82
2022/06/19 10:13:56;;;;;;;8.80;2.10;;;;;;;;;;5337938;27;20379;-82
2022/06/19 10:16:34;;;;;;;8.13;2.10;;;;;;;;;;5290751;27;20044;-82
2022/06/19 10:19:14;;;;;;;7.35;2.63;;;;;;;;;;5300636;27;20032;-82
2022/06/19 10:24:59;;;;;;;7.65;1.90;;;;;;;;;;5308940;27;20029;-80
2022/06/19 10:27:33;;;;;;;9.70;1.90;;;;;;;;;;5308963;28;20481;-80
2022/06/19 10:30:10;;;;;;;5.47;1.70;;;;;;;;;;5322025;27;20047;-79
2022/06/19 10:32:48;;;;;;;7.78;2.35;;;;;;;;;;5324466;28;20059;-80
2022/06/19 10:35:25;;;;;;;5.93;1.83;;;;;;;;;;5326326;27;20046;-81
2022/06/19 10:38:15;;;;;;;7.38;2.00;;;;;;;;;;5314282;27;20066;-81
2022/06/19 10:41:00;;;;;;;3.92;1.20;;;;;;;;;;5291116;27;20104;-81
2022/06/19 10:43:50;;;;;;;6.88;1.52;;;;;;;;;;5311977;27;20027;-81
2022/06/19 10:46:24;;;;;;;4.45;1.35;;;;;;;;;;5308634;27;20485;-81
2022/06/19 10:49:10;;;;;;;4.68;1.55;;;;;;;;;;5308876;27;20074;-81
2022/06/19 10:51:52;;;;;;;3.53;1.27;;;;;;;;;;5313551;27;20058;-81
2022/06/19 10:54:39;;;;;;;4.10;1.30;;;;;;;;;;5307986;27;20098;-81
2022/06/19 10:57:24;;;;;;;5.53;1.85;;;;;;;;;;5305873;27;20516;-81
2022/06/19 10:59:55;;;;;;;4.40;1.20;;;;;;;;;;5297629;27;20067;-81
2022/06/19 11:05:38;;;;;;;3.88;1.40;;;;;;;;;;5313333;27;21013;-81
2022/06/19 11:08:09;;;;;;;5.18;1.25;;;;;;;;;;5313614;27;20032;-80
2022/06/19 11:10:42;;;;;;;3.37;1.07;;;;;;;;;;5305888;27;20101;-81
2022/06/19 11:13:13;;;;;;;5.65;1.92;;;;;;;;;;5296096;28;20293;-81
2022/06/19 11:15:48;;;;;;;4.67;1.17;;;;;;;;;;5305906;28;20036;-81
2022/06/19 11:18:19;;;;;;;6.50;1.63;;;;;;;;;;5302511;27;20342;-81
2022/06/19 11:20:56;;;;;;;5.75;1.30;;;;;;;;;;5310511;27;22052;-80
2022/06/19 11:23:30;;;;;;;5.07;1.70;;;;;;;;;;5297643;27;20907;-81
2022/06/19 11:26:11;;;;;;;3.78;1.60;;;;;;;;;;5314223;27;20044;-81
2022/06/19 11:28:51;;;;;;;4.53;1.55;;;;;;;;;;5304172;27;20029;-81
2022/06/19 11:31:36;;;;;;;5.72;1.48;;;;;;;;;;5308610;27;20028;-81
2022/06/19 11:37:08;;;;;;;5.32;1.60;;;;;;;;;;5328069;28;20476;-79
2022/06/19 11:39:48;;;;;;;6.18;1.40;;;;;;;;;;5346000;27;20123;-80
2022/06/19 11:42:24;;;;;;;6.18;1.60;;;;;;;;;;5308332;28;20072;-80
2022/06/19 11:44:57;;;;;;;5.43;1.58;;;;;;;;;;5326335;28;20469;-81
2022/06/19 11:47:35;;;;;;;5.47;1.67;;;;;;;;;;5309656;28;20040;-81
2022/06/19 11:50:13;;;;;;;4.40;1.70;;;;;;;;;;5327931;28;20103;-81
2022/06/19 11:52:47;;;;;;;5.03;1.60;;;;;;;;;;5326902;28;20419;-81
2022/06/19 11:55:21;;;;;;;3.33;1.48;;;;;;;;;;5308055;28;20093;-81
2022/06/19 11:57:55;;;;;;;6.53;2.00;;;;;;;;;;5319935;27;20031;-81
2022/06/19 12:00:28;;;;;;;6.35;2.00;;;;;;;;;;5304549;27;20544;-81
2022/06/19 12:03:22;;;;;;;6.80;2.00;;;;;;;;;;5293109;27;20077;-81
2022/06/19 12:05:55;;;;;;;5.45;1.77;;;;;;;;;;5311927;27;20391;-81
2022/06/19 12:08:32;;;;;;;3.80;1.50;;;;;;;;;;5292763;27;20054;-81
2022/06/19 12:11:15;;;;;;;6.90;2.05;;;;;;;;;;5295264;27;20642;-82
2022/06/19 12:13:51;;;;;;;7.47;1.90;;;;;;;;;;5313290;27;20569;-81
2022/06/19 12:16:24;;;;;;;4.50;1.80;;;;;;;;;;5312400;27;20036;-82
2022/06/19 12:19:11;;;;;;;7.53;2.10;;;;;;;;;;5292466;27;20476;-81
2022/06/19 12:21:48;;;;;;;6.32;2.22;;;;;;;;;;5294693;27;20040;-81
2022/06/19 12:24:23;;;;;;;5.60;1.83;;;;;;;;;;5295414;27;20030;-80
2022/06/19 12:26:57;;;;;;;7.60;2.22;;;;;;;;;;5315977;27;20484;-81
2022/06/19 12:29:37;;;;;;;7.13;2.30;;;;;;;;;;5297285;27;20480;-81
2022/06/19 12:32:15;;;;;;;8.35;2.25;;;;;;;;;;5311488;27;20036;-81
2022/06/19 12:34:50;;;;;;;6.55;2.35;;;;;;;;;;5314192;27;20052;-81
2022/06/19 12:37:27;;;;;;;7.63;1.70;;;;;;;;;;5298583;27;20034;-81
2022/06/19 12:39:58;;;;;;;6.53;2.25;;;;;;;;;;5295112;27;20484;-81
2022/06/19 12:42:34;;;;;;;6.25;2.03;;;;;;;;;;5326189;27;20077;-81
2022/06/19 12:45:29;;;;;;;6.93;2.42;;;;;;;;;;5303236;27;20024;-81
2022/06/19 12:48:14;;;;;;;10.77;2.35;;;;;;;;;;5289836;27;20067;-81
2022/06/19 12:50:48;;;;;;;6.28;1.95;;;;;;;;;;5314223;27;20353;-80
2022/06/19 12:53:29;;;;;;;7.07;2.10;;;;;;;;;;5306867;27;20032;-80
2022/06/19 12:56:10;;;;;;;7.35;2.05;;;;;;;;;;5295519;28;20040;-81
2022/06/19 12:58:41;;;;;;;6.70;2.03;;;;;;;;;;5315831;27;20071;-80
2022/06/19 13:01:12;;;;;;;7.50;1.93;;;;;;;;;;5305530;27;20451;-81
2022/06/19 13:03:44;;;;;;;9.93;2.10;;;;;;;;;;5311313;27;20020;-80
2022/06/19 13:06:18;;;;;;;8.73;2.00;;;;;;;;;;5324633;27;20147;-80
2022/06/19 13:09:02;;;;;;;10.57;2.40;;;;;;;;;;5295743;27;20318;-81
2022/06/19 13:11:42;;;;;;;8.45;2.00;;;;;;;;;;5312464;27;20154;-81
2022/06/19 13:14:21;;;;;;;11.88;2.75;;;;;;;;;;5315655;27;20016;-81
2022/06/19 13:17:15;;;;;;;8.93;2.20;;;;;;;;;;5327194;27;20139;-81
2022/06/19 13:19:54;;;;;;;8.18;2.22;;;;;;;;;;5314058;27;20048;-81
2022/06/19 13:22:25;;;;;;;11.18;2.30;;;;;;;;;;5305521;27;20028;-81
2022/06/19 13:25:16;;;;;;;9.57;2.30;;;;;;;;;;5314142;27;20404;-81
2022/06/19 13:28:01;;;;;;;11.38;2.38;;;;;;;;;;5301258;27;20337;-81
2022/06/19 13:30:55;;;;;;;13.27;2.95;;;;;;;;;;5289697;27;20216;-81
2022/06/19 13:33:45;;;;;;;9.32;2.58;;;;;;;;;;5310606;27;20032;-81
2022/06/19 13:36:21;;;;;;;9.93;2.20;;;;;;;;;;5312676;27;20339;-81
2022/06/19 13:39:11;;;;;;;10.80;2.88;;;;;;;;;;5305545;27;20360;-81
2022/06/19 13:41:57;;;;;;;9.45;2.67;;;;;;;;;;5321000;28;20473;-81
2022/06/19 13:44:37;;;;;;;10.80;2.75;;;;;;;;;;5299778;28;20372;-81
2022/06/19 13:47:30;;;;;;;6.57;2.33;;;;;;;;;;5306058;28;20153;-81
2022/06/19 13:50:04;;;;;;;11.50;2.72;;;;;;;;;;5325221;27;20043;-81
2022/06/19 13:52:41;;;;;;;12.68;3.08;;;;;;;;;;5302331;28;20110;-80
2022/06/19 13:55:24;;;;;;;15.27;4.22;;;;;;;;;;5293883;28;20081;-81
2022/06/19 13:58:11;;;;;;;8.50;2.67;;;;;;;;;;5305170;28;20391;-81
2022/06/19 14:01:01;;;;;;;12.05;3.38;;;;;;;;;;5328417;27;20328;-81
2022/06/19 14:07:06;;;;;;;10.48;2.20;;;;;;;;;;5294193;27;20118;-82
2022/06/19 14:09:41;;;;;;;10.20;2.50;;;;;;;;;;5293556;27;20025;-83
2022/06/19 14:12:15;;;;;;;10.13;2.33;;;;;;;;;;5296121;27;20409;-82
2022/06/19 14:14:46;;;;;;;7.60;1.77;;;;;;;;;;5305805;28;20110;-81
2022/06/19 14:17:25;;;;;;;7.57;1.83;;;;;;;;;;5331109;27;20353;-83
2022/06/19 14:20:05;;;;;;;8.93;1.63;;;;;;;;;;5295634;28;20704;-82
2022/06/19 14:22:59;;;;;;;11.38;2.75;;;;;;;;;;5311257;28;20071;-82
2022/06/19 14:25:36;;;;;;;7.68;1.85;;;;;;;;;;5318118;27;20073;-83
2022/06/19 14:28:15;;;;;;;6.18;1.67;;;;;;;;;;5323175;27;20507;-83
2022/06/19 14:30:50;;;;;;;7.63;1.70;;;;;;;;;;5304477;27;20067;-82
2022/06/19 14:33:40;;;;;;;6.75;2.17;;;;;;;;;;5294713;27;20024;-81
2022/06/19 14:36:11;;;;;;;6.28;2.08;;;;;;;;;;5311032;27;20037;-82
2022/06/19 14:38:42;;;;;;;7.37;2.93;;;;;;;;;;5309441;27;20023;-82
2022/06/19 14:41:32;;;;;;;7.73;1.90;;;;;;;;;;5292253;27;20490;-82
2022/06/19 14:44:15;;;;;;;7.72;2.03;;;;;;;;;;5296776;27;20282;-82
2022/06/19 14:47:06;;;;;;;7.15;2.13;;;;;;;;;;5313122;27;20079;-82
2022/06/19 14:49:38;;;;;;;7.28;2.25;;;;;;;;;;5323809;27;20388;-83
2022/06/19 14:52:12;;;;;;;7.97;2.20;;;;;;;;;;5300740;27;20095;-83
2022/06/19 14:55:01;;;;;;;10.32;1.90;;;;;;;;;;5314047;27;20250;-83
2022/06/19 14:57:34;;;;;;;8.07;2.03;;;;;;;;;;5328000;27;20040;-82
2022/06/19 15:00:12;;;;;;;8.40;1.90;;;;;;;;;;5300759;28;20043;-83
2022/06/19 15:02:48;;;;;;;7.50;2.10;;;;;;;;;;5302836;28;20467;-83
2022/06/19 15:05:27;;;;;;;12.70;2.95;;;;;;;;;;5304987;28;20498;-83
2022/06/19 15:08:01;;;;;;;8.07;2.08;;;;;;;;;;5334771;27;20365;-83
2022/06/19 15:10:37;;;;;;;7.38;2.08;;;;;;;;;;5301934;28;20124;-80
2022/06/19 15:13:14;;;;;;;7.35;1.80;;;;;;;;;;5328472;27;20040;-83
2022/06/19 15:15:48;;;;;;;9.48;2.03;;;;;;;;;;5326847;27;20106;-85
2022/06/19 15:18:27;;;;;;;9.20;2.22;;;;;;;;;;5296088;28;20531;-84
2022/06/19 15:20:59;;;;;;;4.60;1.73;;;;;;;;;;5301716;27;20167;-84
2022/06/19 15:23:31;;;;;;;5.53;1.80;;;;;;;;;;5301351;27;20040;-85
2022/06/19 15:26:11;;;;;;;8.25;1.85;;;;;;;;;;5291871;28;20094;-85
2022/06/19 15:28:48;;;;;;;4.90;1.65;;;;;;;;;;5315956;27;20174;-85
2022/06/19 15:31:22;;;;;;;3.72;1.30;;;;;;;;;;5321997;27;20037;-86
2022/06/19 15:33:58;;;;;;;5.10;2.20;;;;;;;;;;5290050;27;20045;-85
2022/06/19 15:36:35;;;;;;;8.35;1.80;;;;;;;;;;5291589;27;20036;-85
2022/06/19 15:39:11;;;;;;;5.20;1.80;;;;;;;;;;5309420;27;20391;-85
2022/06/19 15:41:49;;;;;;;6.25;2.17;;;;;;;;;;5319328;27;20035;-84
2022/06/19 15:44:20;;;;;;;4.78;1.75;;;;;;;;;;5290175;28;20020;-85
2022/06/19 15:47:07;;;;;;;5.43;1.70;;;;;;;;;;5328285;27;20031;-83
2022/06/19 15:49:38;;;;;;;9.80;1.75;;;;;;;;;;5298178;27;20036;-83
2022/06/19 15:52:10;;;;;;;4.97;1.65;;;;;;;;;;5291592;27;20024;-83
2022/06/19 15:54:42;;;;;;;6.43;1.88;;;;;;;;;;5294527;27;20040;-84
2022/06/19 15:57:18;;;;;;;4.88;1.48;;;;;;;;;;5314020;27;20082;-84
2022/06/19 15:59:53;;;;;;;6.80;2.00;;;;;;;;;;5292099;27;20056;-84
2022/06/19 16:02:26;;;;;;;3.40;1.67;;;;;;;;;;5297346;27;20526;-84
2022/06/19 16:04:59;;;;;;;4.45;1.48;;;;;;;;;;5293584;27;20062;-84
2022/06/19 16:07:33;;;;;;;5.00;1.48;;;;;;;;;;5291692;27;20397;-83
2022/06/19 16:10:16;;;;;;;4.45;2.08;;;;;;;;;;5295208;27;20047;-83
2022/06/19 16:12:49;;;;;;;4.13;1.40;;;;;;;;;;5299665;27;20032;-84
2022/06/19 16:15:25;;;;;;;5.43;1.77;;;;;;;;;;5291442;27;20029;-83
2022/06/19 16:17:58;;;;;;;5.30;1.45;;;;;;;;;;5297308;28;20028;-84
2022/06/19 16:20:29;;;;;;;4.45;1.50;;;;;;;;;;5300218;27;20365;-84
2022/06/19 16:23:02;;;;;;;4.63;1.77;;;;;;;;;;5296802;27;20020;-84
2022/06/19 16:25:41;;;;;;;5.43;1.60;;;;;;;;;;5301931;27;20036;-84
2022/06/19 16:28:14;;;;;;;5.70;1.40;;;;;;;;;;5288861;28;20155;-85
2022/06/19 16:30:48;;;;;;;4.10;1.35;;;;;;;;;;5297355;27;20043;-84